UAL205 MDPC-TNCM
Flight info
| Callsign | UAL205 |
|---|---|
| Flight time | 0h 49m |
| Altitude | 27000 |
| Route | MELLA2T MELLA G633 MAZ RTE12 SJU RTE6 STT B520 PJM |
| Aircraft | A320/M-SDE3FGHIRWY/LB1 |
Departure
| Time | 2026-05-04 18:37 |
|---|---|
| Airport | Punta Cana International Airport (MDPC) |
Arrival
| Time | 2026-05-04 19:27 |
|---|---|
| Airport | Princess Juliana International Airport (TNCM) |
| Time | Latitude | Longitude | Altitude | Speed | Heading |
|---|---|---|---|---|---|
| 2026-05-04 18:04 | 18.56351 | -68.37108 | 50 ft | 0 kts | 264° |
| 2026-05-04 18:28 | 18.56352 | -68.37092 | 50 ft | 4 kts | 265° |
| 2026-05-04 18:28 | 18.56354 | -68.37064 | 50 ft | 4 kts | 265° |
| 2026-05-04 18:28 | 18.56356 | -68.37036 | 50 ft | 4 kts | 267° |
| 2026-05-04 18:29 | 18.56354 | -68.37011 | 46 ft | 4 kts | 313° |
| 2026-05-04 18:29 | 18.56348 | -68.37006 | 50 ft | 0 kts | 354° |
| 2026-05-04 18:32 | 18.56363 | -68.37007 | 50 ft | 0 kts | 354° |
| 2026-05-04 18:32 | 18.56366 | -68.37008 | 50 ft | 1 kts | 354° |
| 2026-05-04 18:32 | 18.56385 | -68.37010 | 50 ft | 0 kts | 354° |
| 2026-05-04 18:33 | 18.56386 | -68.37010 | 50 ft | 1 kts | 354° |
| 2026-05-04 18:33 | 18.56403 | -68.37012 | 50 ft | 4 kts | 354° |
| 2026-05-04 18:34 | 18.56438 | -68.37016 | 50 ft | 6 kts | 354° |
| 2026-05-04 18:34 | 18.56485 | -68.37033 | 50 ft | 8 kts | 309° |
| 2026-05-04 18:34 | 18.56497 | -68.37099 | 50 ft | 12 kts | 266° |
| 2026-05-04 18:34 | 18.56491 | -68.37196 | 50 ft | 14 kts | 265° |
| 2026-05-04 18:35 | 18.56478 | -68.37309 | 50 ft | 17 kts | 264° |
| 2026-05-04 18:35 | 18.56466 | -68.37442 | 49 ft | 19 kts | 265° |
| 2026-05-04 18:35 | 18.56454 | -68.37594 | 49 ft | 22 kts | 266° |
| 2026-05-04 18:35 | 18.56450 | -68.37756 | 47 ft | 19 kts | 294° |
| 2026-05-04 18:36 | 18.56578 | -68.37793 | 47 ft | 21 kts | 2° |
| 2026-05-04 18:36 | 18.56623 | -68.37698 | 48 ft | 0 kts | 85° |
| 2026-05-04 18:36 | 18.56639 | -68.37513 | 48 ft | 69 kts | 85° |
| 2026-05-04 18:37 | 18.56701 | -68.36710 | 53 ft | 145 kts | 86° |
| 2026-05-04 18:37 | 18.56812 | -68.35528 | 528 ft | 171 kts | 85° |
| 2026-05-04 18:37 | 18.57019 | -68.34167 | 964 ft | 208 kts | 85° |
| 2026-05-04 18:37 | 18.57225 | -68.32594 | 1294 ft | 234 kts | 86° |
| 2026-05-04 18:38 | 18.57322 | -68.30790 | 1616 ft | 261 kts | 97° |
| 2026-05-04 18:38 | 18.56744 | -68.28905 | 1964 ft | 285 kts | 122° |
| 2026-05-04 18:38 | 18.55449 | -68.27322 | 2963 ft | 278 kts | 136° |
| 2026-05-04 18:38 | 18.54054 | -68.26015 | 4412 ft | 261 kts | 139° |
| 2026-05-04 18:39 | 18.52660 | -68.24812 | 5458 ft | 260 kts | 141° |
| 2026-05-04 18:39 | 18.51194 | -68.23670 | 6295 ft | 264 kts | 143° |
| 2026-05-04 18:39 | 18.49686 | -68.22531 | 7058 ft | 269 kts | 143° |
| 2026-05-04 18:39 | 18.48162 | -68.21365 | 7812 ft | 273 kts | 142° |
| 2026-05-04 18:40 | 18.46624 | -68.20182 | 8618 ft | 275 kts | 143° |
| 2026-05-04 18:40 | 18.45059 | -68.19005 | 9402 ft | 278 kts | 144° |
| 2026-05-04 18:40 | 18.43469 | -68.17816 | 10151 ft | 282 kts | 144° |
| 2026-05-04 18:40 | 18.41807 | -68.16569 | 10356 ft | 306 kts | 144° |
| 2026-05-04 18:41 | 18.40014 | -68.15215 | 10526 ft | 327 kts | 144° |
| 2026-05-04 18:41 | 18.38136 | -68.13793 | 10954 ft | 337 kts | 144° |
| 2026-05-04 18:41 | 18.36213 | -68.12334 | 11442 ft | 345 kts | 144° |
| 2026-05-04 18:41 | 18.34256 | -68.10845 | 12003 ft | 350 kts | 144° |
| 2026-05-04 18:42 | 18.32271 | -68.09336 | 12586 ft | 354 kts | 144° |
| 2026-05-04 18:42 | 18.30262 | -68.07809 | 13170 ft | 358 kts | 144° |
| 2026-05-04 18:42 | 18.28230 | -68.06264 | 13718 ft | 363 kts | 145° |
| 2026-05-04 18:42 | 18.26170 | -68.04694 | 14206 ft | 368 kts | 144° |
| 2026-05-04 18:43 | 18.24119 | -68.03063 | 14686 ft | 373 kts | 139° |
| 2026-05-04 18:43 | 18.22380 | -68.01023 | 15170 ft | 378 kts | 125° |
| 2026-05-04 18:43 | 18.21133 | -67.98566 | 15602 ft | 386 kts | 112° |
| 2026-05-04 18:43 | 18.20486 | -67.95806 | 16075 ft | 392 kts | 97° |
| 2026-05-04 18:44 | 18.20478 | -67.92917 | 16550 ft | 397 kts | 85° |
| 2026-05-04 18:44 | 18.20618 | -67.91000 | 16909 ft | 399 kts | 85° |
| 2026-05-04 18:44 | 18.20893 | -67.87081 | 17577 ft | 404 kts | 86° |
| 2026-05-04 18:44 | 18.21096 | -67.84123 | 18102 ft | 408 kts | 86° |
| 2026-05-04 18:45 | 18.21296 | -67.81133 | 18584 ft | 411 kts | 86° |
| 2026-05-04 18:45 | 18.21496 | -67.78124 | 19065 ft | 414 kts | 86° |
| 2026-05-04 18:45 | 18.21697 | -67.75101 | 19571 ft | 416 kts | 86° |
| 2026-05-04 18:45 | 18.21902 | -67.72055 | 20057 ft | 419 kts | 86° |
| 2026-05-04 18:46 | 18.22108 | -67.68995 | 20589 ft | 420 kts | 86° |
| 2026-05-04 18:46 | 18.22314 | -67.65922 | 21104 ft | 422 kts | 86° |
| 2026-05-04 18:46 | 18.22522 | -67.62827 | 21598 ft | 425 kts | 87° |
| 2026-05-04 18:46 | 18.22729 | -67.59731 | 22149 ft | 425 kts | 86° |
| 2026-05-04 18:47 | 18.22936 | -67.56623 | 22642 ft | 426 kts | 86° |
| 2026-05-04 18:47 | 18.23142 | -67.53513 | 23152 ft | 427 kts | 86° |
| 2026-05-04 18:47 | 18.23346 | -67.50400 | 23665 ft | 426 kts | 87° |
| 2026-05-04 18:47 | 18.23548 | -67.47290 | 24041 ft | 428 kts | 87° |
| 2026-05-04 18:48 | 18.23753 | -67.44155 | 24365 ft | 431 kts | 86° |
| 2026-05-04 18:48 | 18.23960 | -67.41005 | 24684 ft | 433 kts | 87° |
| 2026-05-04 18:48 | 18.24171 | -67.37832 | 25005 ft | 436 kts | 86° |
| 2026-05-04 18:48 | 18.24380 | -67.34641 | 25308 ft | 439 kts | 86° |
| 2026-05-04 18:49 | 18.24590 | -67.31424 | 25609 ft | 442 kts | 86° |
| 2026-05-04 18:49 | 18.24802 | -67.28189 | 25911 ft | 445 kts | 86° |
| 2026-05-04 18:49 | 18.25013 | -67.24935 | 26201 ft | 448 kts | 86° |
| 2026-05-04 18:49 | 18.25222 | -67.21706 | 26494 ft | 450 kts | 86° |
| 2026-05-04 18:50 | 18.25435 | -67.18406 | 26790 ft | 453 kts | 86° |
| 2026-05-04 18:50 | 18.25631 | -67.15098 | 26996 ft | 454 kts | 88° |
| 2026-05-04 18:50 | 18.25592 | -67.11807 | 27049 ft | 446 kts | 90° |
| 2026-05-04 18:50 | 18.25528 | -67.08551 | 27037 ft | 443 kts | 91° |
| 2026-05-04 18:51 | 18.25460 | -67.05318 | 27034 ft | 442 kts | 91° |
| 2026-05-04 18:51 | 18.25390 | -67.02088 | 27044 ft | 442 kts | 91° |
| 2026-05-04 18:51 | 18.25320 | -66.98850 | 27051 ft | 442 kts | 91° |
| 2026-05-04 18:51 | 18.25251 | -66.95622 | 27051 ft | 442 kts | 90° |
| 2026-05-04 18:52 | 18.25183 | -66.92392 | 27041 ft | 442 kts | 90° |
| 2026-05-04 18:52 | 18.25114 | -66.89163 | 27054 ft | 442 kts | 90° |
| 2026-05-04 18:52 | 18.25044 | -66.85932 | 27050 ft | 441 kts | 90° |
| 2026-05-04 18:52 | 18.24975 | -66.82709 | 27058 ft | 441 kts | 91° |
| 2026-05-04 18:53 | 18.24905 | -66.79481 | 27061 ft | 441 kts | 90° |
| 2026-05-04 18:53 | 18.24834 | -66.76259 | 27056 ft | 441 kts | 90° |
| 2026-05-04 18:53 | 18.24763 | -66.73022 | 27064 ft | 441 kts | 90° |
| 2026-05-04 18:53 | 18.24692 | -66.69798 | 27063 ft | 442 kts | 90° |
| 2026-05-04 18:54 | 18.24617 | -66.66566 | 27059 ft | 442 kts | 90° |
| 2026-05-04 18:54 | 18.24541 | -66.63340 | 27067 ft | 441 kts | 90° |
| 2026-05-04 18:54 | 18.24465 | -66.60114 | 27058 ft | 441 kts | 90° |
| 2026-05-04 18:54 | 18.24392 | -66.56882 | 27059 ft | 441 kts | 90° |
| 2026-05-04 18:55 | 18.24327 | -66.53656 | 27073 ft | 441 kts | 88° |
| 2026-05-04 18:55 | 18.25373 | -66.47371 | 27071 ft | 436 kts | 69° |
| 2026-05-04 18:55 | 18.26522 | -66.44428 | 27066 ft | 435 kts | 66° |
| 2026-05-04 18:56 | 18.27694 | -66.41498 | 27053 ft | 435 kts | 66° |
| 2026-05-04 18:56 | 18.28867 | -66.38560 | 27039 ft | 435 kts | 66° |
| 2026-05-04 18:56 | 18.30038 | -66.35619 | 27039 ft | 436 kts | 66° |
| 2026-05-04 18:56 | 18.30810 | -66.33675 | 27034 ft | 436 kts | 66° |
| 2026-05-04 18:57 | 18.32378 | -66.29736 | 27032 ft | 436 kts | 65° |
| 2026-05-04 18:57 | 18.33155 | -66.27785 | 27032 ft | 436 kts | 66° |
| 2026-05-04 18:57 | 18.34327 | -66.24837 | 27031 ft | 436 kts | 66° |
| 2026-05-04 18:57 | 18.35498 | -66.21890 | 27036 ft | 436 kts | 66° |
| 2026-05-04 18:58 | 18.36673 | -66.18946 | 27045 ft | 436 kts | 65° |
| 2026-05-04 18:58 | 18.37847 | -66.16003 | 27046 ft | 436 kts | 66° |
| 2026-05-04 18:58 | 18.39021 | -66.13062 | 27045 ft | 436 kts | 65° |
| 2026-05-04 18:58 | 18.40198 | -66.10117 | 27046 ft | 436 kts | 65° |
| 2026-05-04 18:59 | 18.41371 | -66.07173 | 27042 ft | 436 kts | 65° |
| 2026-05-04 18:59 | 18.42541 | -66.04230 | 27060 ft | 436 kts | 66° |
| 2026-05-04 18:59 | 18.43489 | -66.01193 | 27051 ft | 437 kts | 76° |
| 2026-05-04 18:59 | 18.43894 | -65.98023 | 27059 ft | 439 kts | 87° |
| 2026-05-04 19:00 | 18.43749 | -65.94812 | 27045 ft | 440 kts | 97° |
| 2026-05-04 19:00 | 18.43153 | -65.91651 | 27051 ft | 440 kts | 101° |
| 2026-05-04 19:00 | 18.42506 | -65.88500 | 27054 ft | 440 kts | 101° |
| 2026-05-04 19:00 | 18.41862 | -65.85348 | 27064 ft | 440 kts | 101° |
| 2026-05-04 19:01 | 18.41221 | -65.82195 | 27052 ft | 440 kts | 101° |
| 2026-05-04 19:01 | 18.40581 | -65.79043 | 27056 ft | 440 kts | 101° |
| 2026-05-04 19:01 | 18.39941 | -65.75897 | 27061 ft | 440 kts | 101° |
| 2026-05-04 19:01 | 18.39295 | -65.72741 | 27073 ft | 440 kts | 101° |
| 2026-05-04 19:02 | 18.38653 | -65.69595 | 27074 ft | 440 kts | 102° |
| 2026-05-04 19:02 | 18.38007 | -65.66444 | 27078 ft | 440 kts | 101° |
| 2026-05-04 19:02 | 18.37361 | -65.63297 | 27079 ft | 440 kts | 101° |
| 2026-05-04 19:02 | 18.36721 | -65.60188 | 27083 ft | 440 kts | 102° |
| 2026-05-04 19:03 | 18.36065 | -65.57000 | 27081 ft | 440 kts | 101° |
| 2026-05-04 19:03 | 18.35420 | -65.53856 | 27082 ft | 439 kts | 101° |
| 2026-05-04 19:03 | 18.34778 | -65.50714 | 27084 ft | 439 kts | 101° |
| 2026-05-04 19:03 | 18.34135 | -65.47568 | 27074 ft | 439 kts | 101° |
| 2026-05-04 19:04 | 18.33500 | -65.44471 | 27075 ft | 439 kts | 101° |
| 2026-05-04 19:04 | 18.32844 | -65.41290 | 27077 ft | 439 kts | 101° |
| 2026-05-04 19:04 | 18.32196 | -65.38154 | 27075 ft | 439 kts | 101° |
| 2026-05-04 19:04 | 18.31555 | -65.35056 | 27073 ft | 439 kts | 101° |
| 2026-05-04 19:05 | 18.30904 | -65.31924 | 27069 ft | 438 kts | 101° |
| 2026-05-04 19:05 | 18.30252 | -65.28792 | 27062 ft | 438 kts | 101° |
| 2026-05-04 19:05 | 18.29799 | -65.25630 | 27060 ft | 437 kts | 92° |
| 2026-05-04 19:05 | 18.29869 | -65.22444 | 27055 ft | 434 kts | 81° |
| 2026-05-04 19:06 | 18.30462 | -65.19342 | 27057 ft | 432 kts | 71° |
| 2026-05-04 19:06 | 18.31380 | -65.16336 | 27045 ft | 432 kts | 70° |
| 2026-05-04 19:06 | 18.32301 | -65.13323 | 27046 ft | 432 kts | 71° |
| 2026-05-04 19:06 | 18.33214 | -65.10317 | 27055 ft | 432 kts | 71° |
| 2026-05-04 19:07 | 18.34124 | -65.07302 | 27044 ft | 432 kts | 72° |
| 2026-05-04 19:07 | 18.34882 | -65.04250 | 27042 ft | 433 kts | 79° |
| 2026-05-04 19:07 | 18.35134 | -65.01084 | 27041 ft | 435 kts | 89° |
| 2026-05-04 19:07 | 18.34861 | -64.97916 | 27045 ft | 436 kts | 99° |
| 2026-05-04 19:08 | 18.34348 | -64.94771 | 27044 ft | 436 kts | 98° |
| 2026-05-04 19:08 | 18.33834 | -64.91631 | 27050 ft | 436 kts | 99° |
| 2026-05-04 19:08 | 18.33320 | -64.88486 | 27054 ft | 436 kts | 99° |
| 2026-05-04 19:08 | 18.32807 | -64.85345 | 27053 ft | 436 kts | 98° |
| 2026-05-04 19:09 | 18.32296 | -64.82202 | 27049 ft | 436 kts | 98° |
| 2026-05-04 19:09 | 18.31786 | -64.79058 | 27055 ft | 436 kts | 99° |
| 2026-05-04 19:09 | 18.31272 | -64.75917 | 27054 ft | 436 kts | 98° |
| 2026-05-04 19:09 | 18.30755 | -64.72770 | 27053 ft | 436 kts | 98° |
| 2026-05-04 19:10 | 18.30236 | -64.69634 | 27061 ft | 436 kts | 99° |
| 2026-05-04 19:10 | 18.29714 | -64.66481 | 27074 ft | 436 kts | 98° |
| 2026-05-04 19:10 | 18.29196 | -64.63339 | 27064 ft | 436 kts | 98° |
| 2026-05-04 19:10 | 18.28682 | -64.60193 | 27068 ft | 436 kts | 99° |
| 2026-05-04 19:11 | 18.28171 | -64.57054 | 27067 ft | 436 kts | 98° |
| 2026-05-04 19:11 | 18.27656 | -64.53913 | 27063 ft | 436 kts | 99° |
| 2026-05-04 19:11 | 18.27139 | -64.50768 | 27063 ft | 436 kts | 99° |
| 2026-05-04 19:11 | 18.26622 | -64.47626 | 27061 ft | 436 kts | 98° |
| 2026-05-04 19:12 | 18.26110 | -64.44525 | 27064 ft | 436 kts | 98° |
| 2026-05-04 19:12 | 18.25057 | -64.38138 | 27055 ft | 447 kts | 99° |
| 2026-05-04 19:12 | 18.24523 | -64.34922 | 27047 ft | 442 kts | 99° |
| 2026-05-04 19:13 | 18.23996 | -64.31758 | 26918 ft | 427 kts | 99° |
| 2026-05-04 19:13 | 18.23489 | -64.28699 | 26512 ft | 421 kts | 99° |
| 2026-05-04 19:13 | 18.22997 | -64.25720 | 26093 ft | 417 kts | 98° |
| 2026-05-04 19:13 | 18.22502 | -64.22735 | 25682 ft | 413 kts | 99° |
| 2026-05-04 19:14 | 18.22006 | -64.19772 | 25277 ft | 409 kts | 99° |
| 2026-05-04 19:14 | 18.21516 | -64.16839 | 24890 ft | 405 kts | 99° |
| 2026-05-04 19:14 | 18.21032 | -64.13935 | 24535 ft | 401 kts | 99° |
| 2026-05-04 19:14 | 18.20554 | -64.11054 | 24176 ft | 398 kts | 99° |
| 2026-05-04 19:15 | 18.20081 | -64.08199 | 23792 ft | 396 kts | 99° |
| 2026-05-04 19:15 | 18.19604 | -64.05321 | 23404 ft | 392 kts | 99° |
| 2026-05-04 19:15 | 18.19141 | -64.02553 | 22965 ft | 389 kts | 99° |
| 2026-05-04 19:15 | 18.18669 | -63.99753 | 22448 ft | 388 kts | 100° |
| 2026-05-04 19:16 | 18.18198 | -63.96960 | 21933 ft | 388 kts | 100° |
| 2026-05-04 19:16 | 18.17731 | -63.94174 | 21421 ft | 387 kts | 99° |
| 2026-05-04 19:16 | 18.17262 | -63.91390 | 20897 ft | 386 kts | 99° |
| 2026-05-04 19:16 | 18.16796 | -63.88608 | 20413 ft | 385 kts | 99° |
| 2026-05-04 19:17 | 18.16330 | -63.85841 | 19845 ft | 383 kts | 99° |
| 2026-05-04 19:17 | 18.15868 | -63.83115 | 19245 ft | 374 kts | 99° |
| 2026-05-04 19:17 | 18.15417 | -63.80452 | 18662 ft | 366 kts | 100° |
| 2026-05-04 19:17 | 18.14976 | -63.77839 | 18049 ft | 360 kts | 100° |
| 2026-05-04 19:18 | 18.14542 | -63.75265 | 17384 ft | 357 kts | 100° |
| 2026-05-04 19:18 | 18.14113 | -63.72711 | 16743 ft | 352 kts | 100° |
| 2026-05-04 19:18 | 18.13691 | -63.70205 | 16111 ft | 345 kts | 100° |
| 2026-05-04 19:18 | 18.13277 | -63.67744 | 15493 ft | 339 kts | 100° |
| 2026-05-04 19:19 | 18.12691 | -63.65377 | 14892 ft | 332 kts | 109° |
| 2026-05-04 19:19 | 18.11971 | -63.63093 | 14296 ft | 326 kts | 109° |
| 2026-05-04 19:19 | 18.11267 | -63.60852 | 13699 ft | 320 kts | 109° |
| 2026-05-04 19:19 | 18.10578 | -63.58645 | 13040 ft | 315 kts | 109° |
| 2026-05-04 19:20 | 18.09899 | -63.56470 | 12392 ft | 311 kts | 109° |
| 2026-05-04 19:20 | 18.09230 | -63.54329 | 11765 ft | 307 kts | 109° |
| 2026-05-04 19:20 | 18.08568 | -63.52213 | 11142 ft | 303 kts | 109° |
| 2026-05-04 19:20 | 18.07911 | -63.50123 | 10532 ft | 300 kts | 109° |
| 2026-05-04 19:21 | 18.07261 | -63.48054 | 9938 ft | 297 kts | 109° |
| 2026-05-04 19:21 | 18.06615 | -63.45997 | 9275 ft | 294 kts | 109° |
| 2026-05-04 19:21 | 18.05976 | -63.43968 | 8638 ft | 291 kts | 109° |
| 2026-05-04 19:21 | 18.05350 | -63.41965 | 8007 ft | 286 kts | 109° |
| 2026-05-04 19:22 | 18.04729 | -63.39985 | 7327 ft | 285 kts | 109° |
| 2026-05-04 19:22 | 18.04107 | -63.38009 | 6651 ft | 283 kts | 109° |
| 2026-05-04 19:22 | 18.03490 | -63.36051 | 5935 ft | 281 kts | 109° |
| 2026-05-04 19:22 | 18.02880 | -63.34108 | 5239 ft | 279 kts | 109° |
| 2026-05-04 19:23 | 18.02274 | -63.32180 | 4535 ft | 277 kts | 109° |
| 2026-05-04 19:23 | 18.01681 | -63.30260 | 3824 ft | 275 kts | 106° |
| 2026-05-04 19:23 | 18.01549 | -63.28262 | 3157 ft | 275 kts | 85° |
| 2026-05-04 19:23 | 18.01846 | -63.26317 | 2737 ft | 264 kts | 82° |
| 2026-05-04 19:24 | 18.02151 | -63.24462 | 2381 ft | 251 kts | 83° |
| 2026-05-04 19:24 | 18.02412 | -63.22694 | 2059 ft | 240 kts | 83° |
| 2026-05-04 19:24 | 18.02649 | -63.21003 | 1753 ft | 228 kts | 84° |
| 2026-05-04 19:24 | 18.02880 | -63.19397 | 1452 ft | 217 kts | 84° |
| 2026-05-04 19:25 | 18.03096 | -63.17913 | 1172 ft | 193 kts | 83° |
| 2026-05-04 19:25 | 18.03286 | -63.16611 | 962 ft | 169 kts | 85° |
| 2026-05-04 19:25 | 18.03453 | -63.15458 | 753 ft | 148 kts | 83° |
| 2026-05-04 19:25 | 18.03596 | -63.14424 | 582 ft | 143 kts | 84° |
| 2026-05-04 19:26 | 18.03746 | -63.13420 | 354 ft | 134 kts | 84° |
| 2026-05-04 19:26 | 18.03873 | -63.12448 | 182 ft | 134 kts | 83° |
| 2026-05-04 19:26 | 18.04013 | -63.11481 | 37 ft | 133 kts | 83° |
| 2026-05-04 19:26 | 18.04117 | -63.10710 | 22 ft | 70 kts | 81° |
| 2026-05-04 19:27 | 18.04153 | -63.10455 | 20 ft | 24 kts | 82° |
| 2026-05-04 19:27 | 18.04184 | -63.10245 | 20 ft | 33 kts | 82° |
| 2026-05-04 19:27 | 18.04220 | -63.10004 | 19 ft | 36 kts | 77° |
| 2026-05-04 19:27 | 18.04288 | -63.09865 | 21 ft | 14 kts | 88° |
| 2026-05-04 19:28 | 18.04233 | -63.09908 | 20 ft | 21 kts | 260° |
| 2026-05-04 19:28 | 18.04210 | -63.10102 | 19 ft | 33 kts | 264° |
| 2026-05-04 19:28 | 18.04172 | -63.10382 | 20 ft | 44 kts | 261° |
| 2026-05-04 19:28 | 18.04130 | -63.10688 | 21 ft | 38 kts | 262° |
| 2026-05-04 19:29 | 18.04095 | -63.10918 | 23 ft | 25 kts | 259° |
| 2026-05-04 19:29 | 18.04155 | -63.11003 | 22 ft | 19 kts | 334° |
| 2026-05-04 19:29 | 18.04161 | -63.11087 | 21 ft | 17 kts | 261° |
| 2026-05-04 19:29 | 18.04139 | -63.11257 | 23 ft | 30 kts | 265° |
| 2026-05-04 19:30 | 18.04202 | -63.11308 | 21 ft | 16 kts | 356° |
| 2026-05-04 19:30 | 18.04305 | -63.11289 | 21 ft | 16 kts | 4° |
| 2026-05-04 19:30 | 18.04341 | -63.11295 | 21 ft | 0 kts | 350° |